createdAt,value
2022-08-04T06:14:00.161Z,101406.47
2022-08-04T06:16:46.020Z,101414.28
2022-08-04T06:20:03.401Z,101416.03
2022-08-04T06:22:31.279Z,101415.25
2022-08-04T06:25:12.163Z,101410.72
2022-08-04T06:27:50.138Z,101423.34
2022-08-04T06:30:35.146Z,101414.84
2022-08-04T06:33:25.077Z,101415.97
2022-08-04T06:36:03.947Z,101417.72
2022-08-04T06:38:41.129Z,101415.28
2022-08-04T06:41:17.816Z,101414.47
2022-08-04T06:43:56.865Z,101422.88
2022-08-04T06:46:40.923Z,101408.50
2022-08-04T06:49:20.845Z,101421.94
2022-08-04T06:52:00.371Z,101419.47
2022-08-04T06:54:37.296Z,101415.97
2022-08-04T06:57:17.429Z,101420.59
2022-08-04T07:00:01.263Z,101414.34
2022-08-04T07:02:56.588Z,101411.84
2022-08-04T07:05:34.629Z,101414.81
2022-08-04T07:08:13.377Z,101417.41
2022-08-04T07:10:51.253Z,101415.78
2022-08-04T07:13:29.636Z,101414.34
2022-08-04T07:16:08.035Z,101417.13
2022-08-04T07:18:47.671Z,101409.84
2022-08-04T07:21:28.250Z,101413.00
2022-08-04T07:24:04.951Z,101406.97
2022-08-04T07:26:44.322Z,101405.13
2022-08-04T07:29:21.712Z,101406.81
2022-08-04T07:32:00.632Z,101416.06
2022-08-04T07:34:41.981Z,101408.53
2022-08-04T07:37:20.785Z,101411.06
2022-08-04T07:39:57.890Z,101403.94
2022-08-04T07:42:35.311Z,101406.09
2022-08-04T07:45:14.290Z,101404.59
2022-08-04T07:48:04.770Z,101400.81
2022-08-04T07:50:46.580Z,101402.28
2022-08-04T07:53:55.047Z,101401.66
2022-08-04T07:56:34.169Z,101403.09
2022-08-04T07:59:11.740Z,101407.47
2022-08-04T08:01:49.471Z,101405.84
2022-08-04T08:04:27.530Z,101408.50
2022-08-04T08:07:07.407Z,101410.16
2022-08-04T08:09:45.093Z,101414.34
2022-08-04T08:12:38.494Z,101406.75
2022-08-04T08:15:20.490Z,101406.47
2022-08-04T08:17:57.830Z,101410.03
2022-08-04T08:20:37.648Z,101398.66
2022-08-04T08:23:16.901Z,101395.44
2022-08-04T08:25:54.264Z,101395.19
2022-08-04T08:28:31.551Z,101392.41
2022-08-04T08:31:08.691Z,101398.84
2022-08-04T08:33:46.361Z,101398.34
2022-08-04T08:36:30.669Z,101393.69
2022-08-04T08:39:21.649Z,101394.34
2022-08-04T08:42:45.138Z,101399.28
2022-08-04T08:45:56.200Z,101402.53
2022-08-04T08:49:10.318Z,101397.19
2022-08-04T08:52:56.271Z,101393.28
2022-08-04T08:55:57.811Z,101403.38
2022-08-04T08:58:59.868Z,101405.28
2022-08-04T09:02:01.483Z,101399.19
2022-08-04T09:05:18.130Z,101394.41
2022-08-04T09:08:14.909Z,101395.28
2022-08-04T09:11:02.127Z,101403.31
2022-08-04T09:13:47.045Z,101396.44
2022-08-04T09:16:30.361Z,101388.50
2022-08-04T09:19:22.942Z,101378.25
2022-08-04T09:22:23.070Z,101386.59
2022-08-04T09:25:07.490Z,101384.13
2022-08-04T09:27:55.784Z,101375.91
2022-08-04T09:30:43.262Z,101376.56
2022-08-04T09:33:45.284Z,101381.09
2022-08-04T09:36:36.195Z,101372.38
2022-08-04T09:39:27.753Z,101369.03
2022-08-04T09:42:19.412Z,101380.72
2022-08-04T09:45:21.287Z,101377.84
2022-08-04T09:48:14.493Z,101379.13
2022-08-04T09:51:01.891Z,101373.16
2022-08-04T09:53:57.050Z,101381.09
2022-08-04T09:56:42.001Z,101370.31
2022-08-04T09:59:30.569Z,101371.81
2022-08-04T10:02:14.555Z,101368.69
2022-08-04T10:04:53.198Z,101370.22
2022-08-04T10:07:59.587Z,101370.44
2022-08-04T10:11:07.414Z,101372.22
2022-08-04T10:13:55.791Z,101365.88
2022-08-04T10:16:49.939Z,101361.88
2022-08-04T10:19:36.239Z,101358.97
2022-08-04T10:22:28.958Z,101356.50
2022-08-04T10:25:37.515Z,101346.78
2022-08-04T10:28:24.998Z,101349.94
2022-08-04T10:31:10.601Z,101355.63
2022-08-04T10:33:56.529Z,101352.03
2022-08-04T10:36:48.170Z,101360.38
2022-08-04T10:39:43.095Z,101355.97
2022-08-04T10:42:34.273Z,101352.44
2022-08-04T10:45:21.249Z,101358.16
2022-08-04T10:48:10.784Z,101345.91
2022-08-04T10:51:05.709Z,101344.41
2022-08-04T10:53:47.822Z,101345.13
2022-08-04T10:56:35.665Z,101346.19
2022-08-04T10:59:20.529Z,101336.66
2022-08-04T11:02:05.050Z,101335.78
2022-08-04T11:04:50.362Z,101337.59
2022-08-04T11:07:32.250Z,101344.38
2022-08-04T11:10:13.269Z,101345.63
2022-08-04T11:12:57.404Z,101336.72
2022-08-04T11:15:42.294Z,101335.94
2022-08-04T11:18:43.404Z,101330.34
2022-08-04T11:21:25.154Z,101338.06
2022-08-04T11:24:06.334Z,101332.13
2022-08-04T11:26:53.209Z,101330.66
2022-08-04T11:29:42.636Z,101329.19
2022-08-04T11:32:34.780Z,101342.94
2022-08-04T11:35:19.675Z,101328.69
2022-08-04T11:38:05.715Z,101325.22
2022-08-04T11:41:02.209Z,101311.03
2022-08-04T11:44:01.362Z,101312.91
2022-08-04T11:46:46.812Z,101311.06
2022-08-04T11:49:57.495Z,101307.78
2022-08-04T11:52:37.468Z,101306.69
2022-08-04T11:55:19.755Z,101320.75
2022-08-04T11:57:57.785Z,101310.28
2022-08-04T12:00:42.815Z,101306.38
2022-08-04T12:03:37.683Z,101309.16
2022-08-04T12:06:25.665Z,101304.72
2022-08-04T12:09:14.996Z,101310.84
2022-08-04T12:12:05.773Z,101315.31
2022-08-04T12:14:56.944Z,101314.28
2022-08-04T12:17:52.946Z,101314.09
2022-08-04T12:20:41.141Z,101310.63
2022-08-04T12:23:26.344Z,101306.19
2022-08-04T12:26:09.787Z,101299.56
2022-08-04T12:29:09.529Z,101300.69
2022-08-04T12:31:52.495Z,101297.34
2022-08-04T12:34:43.505Z,101306.44
2022-08-04T12:37:32.292Z,101306.16
2022-08-04T12:40:28.831Z,101300.63
2022-08-04T12:43:14.886Z,101293.94
2022-08-04T12:45:56.251Z,101291.03
2022-08-04T12:48:34.179Z,101302.72
2022-08-04T12:52:06.933Z,101300.72
2022-08-04T12:54:14.120Z,101286.41
2022-08-04T12:56:51.648Z,101299.56
2022-08-04T12:59:28.939Z,101282.53
2022-08-04T13:02:11.294Z,101280.16
2022-08-04T13:04:51.681Z,101277.31
2022-08-04T13:07:43.831Z,101292.72
2022-08-04T13:10:23.430Z,101285.41
2022-08-04T13:13:08.501Z,101280.19
2022-08-04T13:15:47.419Z,101287.41
2022-08-04T13:18:37.197Z,101268.91
2022-08-04T13:21:19.556Z,101268.94
2022-08-04T13:24:20.281Z,101264.00
2022-08-04T13:27:04.229Z,101262.25
2022-08-04T13:30:24.520Z,101249.03
2022-08-04T13:32:43.026Z,101252.88
2022-08-04T13:35:20.039Z,101249.84
2022-08-04T13:38:00.509Z,101255.66
2022-08-04T13:40:42.234Z,101251.84
2022-08-04T13:44:16.171Z,101248.00
2022-08-04T13:46:35.993Z,101245.25
2022-08-04T13:49:42.877Z,101243.03
2022-08-04T13:52:15.811Z,101237.25
2022-08-04T13:54:53.741Z,101242.81
2022-08-04T13:57:38.651Z,101235.88
2022-08-04T14:00:29.362Z,101241.41
2022-08-04T14:03:23.376Z,101246.97
2022-08-04T14:06:21.730Z,101233.13
2022-08-04T14:09:04.131Z,101237.00
2022-08-04T14:12:09.575Z,101220.38
2022-08-04T14:14:52.550Z,101216.53
2022-08-04T14:17:31.861Z,101219.56
2022-08-04T14:20:11.380Z,101224.00
2022-08-04T14:22:49.428Z,101216.53
2022-08-04T14:25:35.276Z,101221.50
2022-08-04T14:28:14.039Z,101218.69
2022-08-04T14:30:53.714Z,101214.84
2022-08-04T14:34:03.606Z,101204.63
2022-08-04T14:37:16.547Z,101199.88
2022-08-04T14:40:17.332Z,101191.03
2022-08-04T14:42:54.597Z,101202.63
2022-08-04T14:45:36.732Z,101194.63
2022-08-04T14:48:20.484Z,101189.66
2022-08-04T14:51:00.232Z,101194.91
2022-08-04T14:53:41.106Z,101189.66
2022-08-04T14:56:37.795Z,101192.13
2022-08-04T14:59:18.637Z,101195.97
2022-08-04T15:02:00.975Z,101200.91
2022-08-04T15:04:41.622Z,101182.13
2022-08-04T15:07:20.092Z,101199.53
2022-08-04T15:09:58.913Z,101188.19
2022-08-04T15:12:37.423Z,101189.22
2022-08-04T15:15:35.924Z,101186.44
2022-08-04T15:18:15.405Z,101190.28
2022-08-04T15:20:56.852Z,101185.25
2022-08-04T15:23:38.658Z,101183.03
2022-08-04T15:26:20.511Z,101185.25
2022-08-04T15:29:01.988Z,101192.13
2022-08-04T15:32:05.838Z,101189.06
2022-08-04T15:34:51.771Z,101191.25
2022-08-04T15:37:40.498Z,101187.34
2022-08-04T15:40:32.755Z,101184.56
2022-08-04T15:43:35.447Z,101181.09
2022-08-04T15:46:42.941Z,101184.41
2022-08-04T15:49:23.784Z,101188.19
2022-08-04T15:52:12.434Z,101177.56
2022-08-04T15:54:53.139Z,101175.75
2022-08-04T15:58:03.733Z,101178.88
2022-08-04T16:01:19.972Z,101178.00
2022-08-04T16:03:59.934Z,101172.72
2022-08-04T16:06:48.057Z,101175.34
2022-08-04T16:09:45.250Z,101174.72
2022-08-04T16:13:02.103Z,101170.19
2022-08-04T16:15:45.516Z,101165.72
2022-08-04T16:18:44.161Z,101180.81
2022-08-04T16:21:26.554Z,101166.97
2022-08-04T16:24:22.072Z,101168.88
2022-08-04T16:27:00.912Z,101166.81
2022-08-04T16:29:42.862Z,101162.00
2022-08-04T16:32:23.552Z,101168.97
2022-08-04T16:35:06.507Z,101165.91
2022-08-04T16:37:47.335Z,101178.16
2022-08-04T16:40:37.194Z,101174.50
2022-08-04T16:43:18.796Z,101174.56
2022-08-04T16:46:02.379Z,101167.41
2022-08-04T16:48:40.700Z,101167.91
2022-08-04T16:51:17.528Z,101174.94
2022-08-04T16:54:04.792Z,101169.09
2022-08-04T16:56:42.235Z,101168.19
2022-08-04T16:59:19.806Z,101162.06
2022-08-04T17:02:00.026Z,101157.31
2022-08-04T17:04:39.500Z,101158.34
2022-08-04T17:07:18.167Z,101159.00
2022-08-04T17:09:58.709Z,101159.41
2022-08-04T17:12:35.497Z,101158.19
2022-08-04T17:15:25.145Z,101163.53
2022-08-04T17:18:25.205Z,101159.19
2022-08-04T17:21:07.449Z,101157.19
2022-08-04T17:24:15.489Z,101156.50
2022-08-04T17:29:45.228Z,101149.69
2022-08-04T17:32:24.994Z,101153.34
2022-08-04T17:35:05.102Z,101153.16
2022-08-04T17:37:52.582Z,101150.22
2022-08-04T17:40:30.491Z,101157.41
2022-08-04T17:44:04.960Z,101157.44
2022-08-04T17:46:28.858Z,101157.25
2022-08-04T17:49:16.558Z,101157.28
2022-08-04T17:52:07.041Z,101150.75
2022-08-04T17:55:03.037Z,101156.50
2022-08-04T17:57:40.352Z,101157.34
2022-08-04T18:00:20.433Z,101155.56
2022-08-04T18:02:57.696Z,101162.50
2022-08-04T18:06:02.357Z,101161.44
2022-08-04T18:08:40.949Z,101163.69
2022-08-04T18:11:29.760Z,101164.28
2022-08-04T18:14:18.969Z,101163.78
2022-08-04T18:18:19.545Z,101167.50
2022-08-04T18:20:03.778Z,101165.91
2022-08-04T18:22:42.419Z,101168.78
2022-08-04T18:25:23.910Z,101166.13
2022-08-04T18:28:26.633Z,101171.94
2022-08-04T18:31:04.072Z,101165.94
2022-08-04T18:33:42.175Z,101160.34
2022-08-04T18:36:33.868Z,101170.34
2022-08-04T18:39:15.940Z,101181.38
2022-08-04T18:42:03.789Z,101167.53
2022-08-04T18:44:52.659Z,101174.44
2022-08-04T18:47:30.178Z,101177.03
2022-08-04T18:51:00.404Z,101179.63
2022-08-04T18:53:06.919Z,101184.75
2022-08-04T18:55:56.960Z,101182.72
2022-08-04T18:58:37.800Z,101184.97
2022-08-04T19:01:16.360Z,101190.13
2022-08-04T19:03:57.718Z,101188.69
2022-08-04T19:06:36.970Z,101186.47
2022-08-04T19:09:16.597Z,101192.88
2022-08-04T19:11:59.680Z,101192.13
2022-08-04T19:14:45.859Z,101195.56
2022-08-04T19:17:54.067Z,101196.47
2022-08-04T19:20:26.092Z,101191.91
2022-08-04T19:24:27.415Z,101194.47
2022-08-04T19:26:05.587Z,101196.44
2022-08-04T19:28:48.174Z,101192.50
2022-08-04T19:31:34.331Z,101194.22
2022-08-04T19:34:34.758Z,101188.38
2022-08-04T19:37:16.560Z,101192.59
2022-08-04T19:39:56.192Z,101200.63
2022-08-04T19:42:37.546Z,101205.91
2022-08-04T19:45:16.132Z,101205.50
2022-08-04T19:48:15.939Z,101209.97
2022-08-04T19:50:53.587Z,101217.16
2022-08-04T19:53:37.586Z,101210.88
2022-08-04T19:56:20.517Z,101205.47
2022-08-04T19:59:02.639Z,101203.81
2022-08-04T20:01:45.299Z,101208.50
2022-08-04T20:04:25.280Z,101203.47
2022-08-04T20:07:03.248Z,101211.91
2022-08-04T20:09:40.278Z,101212.34
2022-08-04T20:12:30.958Z,101203.34
